sensor_id;sensor_type;location;lat;lon;timestamp;P1;durP1;ratioP1;P2;durP2;ratioP2
56427;SDS011;42331;53.578;9.760;2024-02-14T00:00:08;4.15;;;1.55;;
56427;SDS011;42331;53.578;9.760;2024-02-14T00:02:43;3.97;;;1.50;;
56427;SDS011;42331;53.578;9.760;2024-02-14T00:05:15;4.63;;;1.30;;
56427;SDS011;42331;53.578;9.760;2024-02-14T00:07:46;5.05;;;1.60;;
56427;SDS011;42331;53.578;9.760;2024-02-14T00:10:17;6.60;;;1.47;;
56427;SDS011;42331;53.578;9.760;2024-02-14T00:12:48;6.45;;;1.67;;
56427;SDS011;42331;53.578;9.760;2024-02-14T00:15:19;2.70;;;1.40;;
56427;SDS011;42331;53.578;9.760;2024-02-14T00:17:50;4.85;;;1.50;;
56427;SDS011;42331;53.578;9.760;2024-02-14T00:20:21;2.47;;;0.80;;
56427;SDS011;42331;53.578;9.760;2024-02-14T00:22:52;4.75;;;1.75;;
56427;SDS011;42331;53.578;9.760;2024-02-14T00:25:23;7.40;;;1.70;;
56427;SDS011;42331;53.578;9.760;2024-02-14T00:27:54;4.97;;;1.40;;
56427;SDS011;42331;53.578;9.760;2024-02-14T00:30:26;4.77;;;1.27;;
56427;SDS011;42331;53.578;9.760;2024-02-14T00:32:57;7.05;;;1.60;;
56427;SDS011;42331;53.578;9.760;2024-02-14T00:35:28;3.40;;;1.40;;
56427;SDS011;42331;53.578;9.760;2024-02-14T00:37:59;4.28;;;1.20;;
56427;SDS011;42331;53.578;9.760;2024-02-14T00:40:30;4.97;;;2.00;;
56427;SDS011;42331;53.578;9.760;2024-02-14T00:45:33;4.75;;;1.60;;
56427;SDS011;42331;53.578;9.760;2024-02-14T00:48:05;3.97;;;1.35;;
56427;SDS011;42331;53.578;9.760;2024-02-14T00:50:37;3.70;;;1.33;;
56427;SDS011;42331;53.578;9.760;2024-02-14T00:53:08;4.10;;;1.63;;
56427;SDS011;42331;53.578;9.760;2024-02-14T00:55:39;3.83;;;1.27;;
56427;SDS011;42331;53.578;9.760;2024-02-14T00:58:10;3.43;;;1.73;;
56427;SDS011;42331;53.578;9.760;2024-02-14T01:00:41;3.78;;;1.13;;
56427;SDS011;42331;53.578;9.760;2024-02-14T01:03:12;4.50;;;1.60;;
56427;SDS011;42331;53.578;9.760;2024-02-14T01:05:45;4.05;;;1.50;;
56427;SDS011;42331;53.578;9.760;2024-02-14T01:08:16;5.15;;;1.88;;
56427;SDS011;42331;53.578;9.760;2024-02-14T01:10:47;4.23;;;1.77;;
56427;SDS011;42331;53.578;9.760;2024-02-14T01:13:21;2.63;;;1.38;;
56427;SDS011;42331;53.578;9.760;2024-02-14T01:15:52;3.70;;;1.50;;
56427;SDS011;42331;53.578;9.760;2024-02-14T01:18:23;6.90;;;1.60;;
56427;SDS011;42331;53.578;9.760;2024-02-14T01:20:54;4.60;;;1.80;;
56427;SDS011;42331;53.578;9.760;2024-02-14T01:23:25;6.77;;;1.83;;
56427;SDS011;42331;53.578;9.760;2024-02-14T01:25:57;5.25;;;1.77;;
56427;SDS011;42331;53.578;9.760;2024-02-14T01:28:28;4.85;;;1.70;;
56427;SDS011;42331;53.578;9.760;2024-02-14T01:30:59;4.33;;;2.00;;
56427;SDS011;42331;53.578;9.760;2024-02-14T01:33:30;5.23;;;1.60;;
56427;SDS011;42331;53.578;9.760;2024-02-14T01:36:01;6.30;;;1.45;;
56427;SDS011;42331;53.578;9.760;2024-02-14T01:38:32;7.83;;;2.00;;
56427;SDS011;42331;53.578;9.760;2024-02-14T01:41:05;4.97;;;2.10;;
56427;SDS011;42331;53.578;9.760;2024-02-14T01:43:36;3.87;;;2.07;;
56427;SDS011;42331;53.578;9.760;2024-02-14T01:46:08;7.13;;;2.20;;
56427;SDS011;42331;53.578;9.760;2024-02-14T01:48:39;7.67;;;2.10;;
56427;SDS011;42331;53.578;9.760;2024-02-14T01:51:11;3.70;;;2.35;;
56427;SDS011;42331;53.578;9.760;2024-02-14T01:53:43;6.80;;;2.42;;
56427;SDS011;42331;53.578;9.760;2024-02-14T01:58:46;6.07;;;1.98;;
56427;SDS011;42331;53.578;9.760;2024-02-14T02:01:18;6.28;;;1.70;;
56427;SDS011;42331;53.578;9.760;2024-02-14T02:03:49;5.37;;;2.30;;
56427;SDS011;42331;53.578;9.760;2024-02-14T02:06:20;4.47;;;2.58;;
56427;SDS011;42331;53.578;9.760;2024-02-14T02:08:52;6.97;;;2.70;;
56427;SDS011;42331;53.578;9.760;2024-02-14T02:11:23;7.75;;;2.22;;
56427;SDS011;42331;53.578;9.760;2024-02-14T02:13:55;4.90;;;2.53;;
56427;SDS011;42331;53.578;9.760;2024-02-14T02:16:26;8.53;;;3.00;;
56427;SDS011;42331;53.578;9.760;2024-02-14T02:18:57;6.43;;;2.90;;
56427;SDS011;42331;53.578;9.760;2024-02-14T02:21:28;8.03;;;3.10;;
56427;SDS011;42331;53.578;9.760;2024-02-14T02:24:00;5.22;;;2.72;;
56427;SDS011;42331;53.578;9.760;2024-02-14T02:26:31;6.32;;;2.80;;
56427;SDS011;42331;53.578;9.760;2024-02-14T02:29:02;10.57;;;2.87;;
56427;SDS011;42331;53.578;9.760;2024-02-14T02:31:35;9.70;;;2.75;;
56427;SDS011;42331;53.578;9.760;2024-02-14T02:34:08;6.47;;;3.05;;
56427;SDS011;42331;53.578;9.760;2024-02-14T02:36:40;8.02;;;3.55;;
56427;SDS011;42331;53.578;9.760;2024-02-14T02:39:12;5.93;;;3.33;;
56427;SDS011;42331;53.578;9.760;2024-02-14T02:41:44;6.20;;;2.97;;
56427;SDS011;42331;53.578;9.760;2024-02-14T02:44:18;8.20;;;3.13;;
56427;SDS011;42331;53.578;9.760;2024-02-14T02:46:49;7.57;;;3.17;;
56427;SDS011;42331;53.578;9.760;2024-02-14T02:49:21;7.05;;;2.85;;
56427;SDS011;42331;53.578;9.760;2024-02-14T02:51:52;3.67;;;2.15;;
56427;SDS011;42331;53.578;9.760;2024-02-14T02:54:23;5.70;;;3.00;;
56427;SDS011;42331;53.578;9.760;2024-02-14T02:56:54;7.38;;;3.47;;
56427;SDS011;42331;53.578;9.760;2024-02-14T02:59:26;6.05;;;3.17;;
56427;SDS011;42331;53.578;9.760;2024-02-14T03:01:59;11.48;;;3.35;;
56427;SDS011;42331;53.578;9.760;2024-02-14T03:04:30;9.93;;;3.53;;
56427;SDS011;42331;53.578;9.760;2024-02-14T03:07:03;6.80;;;3.45;;
56427;SDS011;42331;53.578;9.760;2024-02-14T03:09:36;10.05;;;3.92;;
56427;SDS011;42331;53.578;9.760;2024-02-14T03:12:09;5.97;;;3.17;;
56427;SDS011;42331;53.578;9.760;2024-02-14T03:14:40;7.68;;;3.63;;
56427;SDS011;42331;53.578;9.760;2024-02-14T03:17:13;7.95;;;3.30;;
56427;SDS011;42331;53.578;9.760;2024-02-14T03:19:44;5.63;;;3.40;;
56427;SDS011;42331;53.578;9.760;2024-02-14T03:22:15;6.18;;;3.20;;
56427;SDS011;42331;53.578;9.760;2024-02-14T03:24:48;5.78;;;3.35;;
56427;SDS011;42331;53.578;9.760;2024-02-14T03:27:20;10.75;;;3.47;;
56427;SDS011;42331;53.578;9.760;2024-02-14T03:29:53;8.50;;;3.60;;
56427;SDS011;42331;53.578;9.760;2024-02-14T03:32:26;8.73;;;3.65;;
56427;SDS011;42331;53.578;9.760;2024-02-14T03:34:57;9.33;;;3.40;;
56427;SDS011;42331;53.578;9.760;2024-02-14T03:37:28;5.60;;;3.30;;
56427;SDS011;42331;53.578;9.760;2024-02-14T03:39:59;7.30;;;3.53;;
56427;SDS011;42331;53.578;9.760;2024-02-14T03:42:30;7.83;;;4.03;;
56427;SDS011;42331;53.578;9.760;2024-02-14T03:45:01;9.02;;;3.97;;
56427;SDS011;42331;53.578;9.760;2024-02-14T03:47:35;8.02;;;3.70;;
56427;SDS011;42331;53.578;9.760;2024-02-14T03:50:09;5.88;;;3.45;;
56427;SDS011;42331;53.578;9.760;2024-02-14T03:52:41;4.30;;;2.63;;
56427;SDS011;42331;53.578;9.760;2024-02-14T03:55:13;6.43;;;3.30;;
56427;SDS011;42331;53.578;9.760;2024-02-14T03:57:44;7.10;;;3.65;;
56427;SDS011;42331;53.578;9.760;2024-02-14T04:00:17;9.10;;;3.95;;
56427;SDS011;42331;53.578;9.760;2024-02-14T04:02:48;6.55;;;3.70;;
56427;SDS011;42331;53.578;9.760;2024-02-14T04:05:20;9.43;;;3.80;;
56427;SDS011;42331;53.578;9.760;2024-02-14T04:07:53;6.88;;;3.53;;
56427;SDS011;42331;53.578;9.760;2024-02-14T04:10:24;6.47;;;3.20;;
56427;SDS011;42331;53.578;9.760;2024-02-14T04:12:55;6.37;;;3.47;;
56427;SDS011;42331;53.578;9.760;2024-02-14T04:15:26;9.97;;;3.80;;
56427;SDS011;42331;53.578;9.760;2024-02-14T04:17:57;6.83;;;3.50;;
56427;SDS011;42331;53.578;9.760;2024-02-14T04:20:29;7.88;;;4.10;;
56427;SDS011;42331;53.578;9.760;2024-02-14T04:23:02;7.53;;;3.63;;
56427;SDS011;42331;53.578;9.760;2024-02-14T04:25:36;7.28;;;4.00;;
56427;SDS011;42331;53.578;9.760;2024-02-14T04:28:07;9.60;;;4.23;;
56427;SDS011;42331;53.578;9.760;2024-02-14T04:30:38;8.90;;;4.40;;
56427;SDS011;42331;53.578;9.760;2024-02-14T04:33:09;7.10;;;4.37;;
56427;SDS011;42331;53.578;9.760;2024-02-14T04:35:41;9.20;;;3.90;;
56427;SDS011;42331;53.578;9.760;2024-02-14T04:38:12;9.77;;;4.13;;
56427;SDS011;42331;53.578;9.760;2024-02-14T04:40:43;8.40;;;4.25;;
56427;SDS011;42331;53.578;9.760;2024-02-14T04:43:14;9.27;;;4.27;;
56427;SDS011;42331;53.578;9.760;2024-02-14T04:45:46;7.07;;;3.85;;
56427;SDS011;42331;53.578;9.760;2024-02-14T04:48:18;9.27;;;4.03;;
56427;SDS011;42331;53.578;9.760;2024-02-14T04:50:49;10.77;;;4.47;;
56427;SDS011;42331;53.578;9.760;2024-02-14T04:53:20;8.63;;;3.67;;
56427;SDS011;42331;53.578;9.760;2024-02-14T04:55:51;7.30;;;4.33;;
56427;SDS011;42331;53.578;9.760;2024-02-14T04:58:23;8.85;;;4.00;;
56427;SDS011;42331;53.578;9.760;2024-02-14T05:00:56;8.10;;;4.13;;
56427;SDS011;42331;53.578;9.760;2024-02-14T05:03:27;6.27;;;2.97;;
56427;SDS011;42331;53.578;9.760;2024-02-14T05:05:58;8.85;;;4.18;;
56427;SDS011;42331;53.578;9.760;2024-02-14T05:08:32;11.88;;;5.10;;
56427;SDS011;42331;53.578;9.760;2024-02-14T05:11:03;10.70;;;4.40;;
56427;SDS011;42331;53.578;9.760;2024-02-14T05:13:35;13.02;;;4.50;;
56427;SDS011;42331;53.578;9.760;2024-02-14T05:16:08;11.40;;;4.68;;
56427;SDS011;42331;53.578;9.760;2024-02-14T05:18:40;6.90;;;4.00;;
56427;SDS011;42331;53.578;9.760;2024-02-14T05:21:12;6.20;;;4.03;;
56427;SDS011;42331;53.578;9.760;2024-02-14T05:23:43;8.33;;;4.60;;
56427;SDS011;42331;53.578;9.760;2024-02-14T05:26:14;8.13;;;4.37;;
56427;SDS011;42331;53.578;9.760;2024-02-14T05:28:45;9.70;;;4.83;;
56427;SDS011;42331;53.578;9.760;2024-02-14T05:31:16;7.80;;;4.68;;
56427;SDS011;42331;53.578;9.760;2024-02-14T05:33:47;8.53;;;4.87;;
56427;SDS011;42331;53.578;9.760;2024-02-14T05:36:18;9.25;;;4.47;;
56427;SDS011;42331;53.578;9.760;2024-02-14T05:38:49;6.50;;;4.40;;
56427;SDS011;42331;53.578;9.760;2024-02-14T05:41:20;8.60;;;4.27;;
56427;SDS011;42331;53.578;9.760;2024-02-14T05:43:53;10.30;;;4.55;;
56427;SDS011;42331;53.578;9.760;2024-02-14T05:46:24;8.07;;;4.33;;
56427;SDS011;42331;53.578;9.760;2024-02-14T05:48:55;6.87;;;4.13;;
56427;SDS011;42331;53.578;9.760;2024-02-14T05:51:27;6.20;;;4.00;;
56427;SDS011;42331;53.578;9.760;2024-02-14T05:53:59;8.07;;;4.57;;
56427;SDS011;42331;53.578;9.760;2024-02-14T05:56:30;7.10;;;3.83;;
56427;SDS011;42331;53.578;9.760;2024-02-14T05:59:01;8.70;;;4.50;;
56427;SDS011;42331;53.578;9.760;2024-02-14T06:01:32;10.02;;;4.32;;
56427;SDS011;42331;53.578;9.760;2024-02-14T06:04:03;7.20;;;4.47;;
56427;SDS011;42331;53.578;9.760;2024-02-14T06:06:34;5.67;;;3.30;;
56427;SDS011;42331;53.578;9.760;2024-02-14T06:09:05;6.40;;;4.00;;
56427;SDS011;42331;53.578;9.760;2024-02-14T06:11:40;7.35;;;4.40;;
56427;SDS011;42331;53.578;9.760;2024-02-14T06:14:12;9.32;;;4.32;;
56427;SDS011;42331;53.578;9.760;2024-02-14T06:16:44;6.72;;;4.20;;
56427;SDS011;42331;53.578;9.760;2024-02-14T06:19:15;7.27;;;4.07;;
56427;SDS011;42331;53.578;9.760;2024-02-14T06:21:46;6.83;;;4.03;;
56427;SDS011;42331;53.578;9.760;2024-02-14T06:24:17;5.93;;;3.90;;
56427;SDS011;42331;53.578;9.760;2024-02-14T06:29:20;6.47;;;3.72;;
56427;SDS011;42331;53.578;9.760;2024-02-14T06:31:51;7.80;;;3.78;;
56427;SDS011;42331;53.578;9.760;2024-02-14T06:34:22;7.20;;;4.33;;
56427;SDS011;42331;53.578;9.760;2024-02-14T06:36:54;7.07;;;3.83;;
56427;SDS011;42331;53.578;9.760;2024-02-14T06:39:25;8.20;;;4.07;;
56427;SDS011;42331;53.578;9.760;2024-02-14T06:41:57;9.18;;;4.53;;
56427;SDS011;42331;53.578;9.760;2024-02-14T06:44:28;7.93;;;4.33;;
56427;SDS011;42331;53.578;9.760;2024-02-14T06:46:59;7.63;;;4.13;;
56427;SDS011;42331;53.578;9.760;2024-02-14T06:49:30;8.47;;;4.60;;
56427;SDS011;42331;53.578;9.760;2024-02-14T06:52:01;8.23;;;4.73;;
56427;SDS011;42331;53.578;9.760;2024-02-14T06:54:32;6.82;;;4.47;;
56427;SDS011;42331;53.578;9.760;2024-02-14T06:57:03;9.52;;;5.05;;
56427;SDS011;42331;53.578;9.760;2024-02-14T06:59:34;8.95;;;4.70;;
56427;SDS011;42331;53.578;9.760;2024-02-14T07:02:07;9.88;;;5.38;;
56427;SDS011;42331;53.578;9.760;2024-02-14T07:04:38;8.43;;;5.03;;
56427;SDS011;42331;53.578;9.760;2024-02-14T07:07:10;8.70;;;5.00;;
56427;SDS011;42331;53.578;9.760;2024-02-14T07:09:41;9.70;;;5.10;;
56427;SDS011;42331;53.578;9.760;2024-02-14T07:12:12;8.40;;;5.20;;
56427;SDS011;42331;53.578;9.760;2024-02-14T07:14:43;9.20;;;5.07;;
56427;SDS011;42331;53.578;9.760;2024-02-14T07:17:14;8.90;;;5.55;;
56427;SDS011;42331;53.578;9.760;2024-02-14T07:19:45;8.63;;;5.43;;
56427;SDS011;42331;53.578;9.760;2024-02-14T07:22:19;8.68;;;4.90;;
56427;SDS011;42331;53.578;9.760;2024-02-14T07:24:50;8.65;;;5.18;;
56427;SDS011;42331;53.578;9.760;2024-02-14T07:27:23;10.77;;;5.32;;
56427;SDS011;42331;53.578;9.760;2024-02-14T07:29:54;12.63;;;5.43;;
56427;SDS011;42331;53.578;9.760;2024-02-14T07:32:25;6.80;;;4.53;;
56427;SDS011;42331;53.578;9.760;2024-02-14T07:34:57;8.85;;;5.40;;
56427;SDS011;42331;53.578;9.760;2024-02-14T07:37:28;8.57;;;5.27;;
56427;SDS011;42331;53.578;9.760;2024-02-14T07:39:59;7.70;;;4.95;;
56427;SDS011;42331;53.578;9.760;2024-02-14T07:42:30;11.13;;;5.67;;
56427;SDS011;42331;53.578;9.760;2024-02-14T07:45:02;10.65;;;5.43;;
56427;SDS011;42331;53.578;9.760;2024-02-14T07:47:33;10.60;;;5.45;;
56427;SDS011;42331;53.578;9.760;2024-02-14T07:50:04;8.53;;;4.83;;
56427;SDS011;42331;53.578;9.760;2024-02-14T07:52:35;9.70;;;5.05;;
56427;SDS011;42331;53.578;9.760;2024-02-14T07:55:06;9.37;;;5.00;;
56427;SDS011;42331;53.578;9.760;2024-02-14T07:57:41;8.93;;;5.22;;
56427;SDS011;42331;53.578;9.760;2024-02-14T08:00:12;7.93;;;4.85;;
56427;SDS011;42331;53.578;9.760;2024-02-14T08:02:49;9.13;;;5.10;;
56427;SDS011;42331;53.578;9.760;2024-02-14T08:05:20;8.15;;;4.28;;
56427;SDS011;42331;53.578;9.760;2024-02-14T08:07:52;8.15;;;4.95;;
56427;SDS011;42331;53.578;9.760;2024-02-14T08:10:23;8.67;;;5.07;;
56427;SDS011;42331;53.578;9.760;2024-02-14T08:12:54;8.95;;;4.80;;
56427;SDS011;42331;53.578;9.760;2024-02-14T08:15:25;8.77;;;5.27;;
56427;SDS011;42331;53.578;9.760;2024-02-14T08:17:56;8.17;;;4.63;;
56427;SDS011;42331;53.578;9.760;2024-02-14T08:20:29;7.57;;;4.47;;
56427;SDS011;42331;53.578;9.760;2024-02-14T08:23:00;8.90;;;5.00;;
56427;SDS011;42331;53.578;9.760;2024-02-14T08:25:31;9.47;;;5.00;;
56427;SDS011;42331;53.578;9.760;2024-02-14T08:28:02;7.73;;;4.90;;
56427;SDS011;42331;53.578;9.760;2024-02-14T08:30:33;9.73;;;4.90;;
56427;SDS011;42331;53.578;9.760;2024-02-14T08:33:04;8.27;;;5.00;;
56427;SDS011;42331;53.578;9.760;2024-02-14T08:35:36;9.67;;;5.07;;
56427;SDS011;42331;53.578;9.760;2024-02-14T08:38:07;7.72;;;4.80;;
56427;SDS011;42331;53.578;9.760;2024-02-14T08:40:38;7.25;;;4.72;;
56427;SDS011;42331;53.578;9.760;2024-02-14T08:43:10;9.05;;;4.88;;
56427;SDS011;42331;53.578;9.760;2024-02-14T08:45:42;7.57;;;4.88;;
56427;SDS011;42331;53.578;9.760;2024-02-14T08:48:34;8.57;;;4.60;;
56427;SDS011;42331;53.578;9.760;2024-02-14T08:51:07;7.07;;;4.28;;
56427;SDS011;42331;53.578;9.760;2024-02-14T08:53:39;9.20;;;4.80;;
56427;SDS011;42331;53.578;9.760;2024-02-14T08:56:15;7.97;;;4.93;;
56427;SDS011;42331;53.578;9.760;2024-02-14T08:58:48;9.95;;;5.13;;
56427;SDS011;42331;53.578;9.760;2024-02-14T09:04:18;8.10;;;4.70;;
56427;SDS011;42331;53.578;9.760;2024-02-14T09:06:58;7.22;;;4.75;;
56427;SDS011;42331;53.578;9.760;2024-02-14T09:09:29;7.10;;;5.03;;
56427;SDS011;42331;53.578;9.760;2024-02-14T09:12:03;9.70;;;5.03;;
56427;SDS011;42331;53.578;9.760;2024-02-14T09:14:34;8.15;;;4.93;;
56427;SDS011;42331;53.578;9.760;2024-02-14T09:17:06;7.25;;;4.82;;
56427;SDS011;42331;53.578;9.760;2024-02-14T09:19:47;7.07;;;4.78;;
56427;SDS011;42331;53.578;9.760;2024-02-14T09:22:18;9.45;;;5.15;;
56427;SDS011;42331;53.578;9.760;2024-02-14T09:24:53;7.85;;;4.97;;
56427;SDS011;42331;53.578;9.760;2024-02-14T09:27:28;8.05;;;5.13;;
56427;SDS011;42331;53.578;9.760;2024-02-14T09:33:23;7.40;;;4.47;;
56427;SDS011;42331;53.578;9.760;2024-02-14T09:36:09;8.07;;;4.97;;
56427;SDS011;42331;53.578;9.760;2024-02-14T09:38:43;8.63;;;5.05;;
56427;SDS011;42331;53.578;9.760;2024-02-14T09:44:31;6.47;;;4.63;;
56427;SDS011;42331;53.578;9.760;2024-02-14T09:47:12;9.23;;;5.05;;
56427;SDS011;42331;53.578;9.760;2024-02-14T09:49:44;8.70;;;5.05;;
56427;SDS011;42331;53.578;9.760;2024-02-14T09:52:19;5.55;;;3.67;;
56427;SDS011;42331;53.578;9.760;2024-02-14T09:54:51;7.05;;;4.60;;
56427;SDS011;42331;53.578;9.760;2024-02-14T09:57:41;7.97;;;4.82;;
56427;SDS011;42331;53.578;9.760;2024-02-14T10:00:15;7.32;;;4.40;;
56427;SDS011;42331;53.578;9.760;2024-02-14T10:02:52;8.70;;;4.68;;
56427;SDS011;42331;53.578;9.760;2024-02-14T10:05:23;9.52;;;4.80;;
56427;SDS011;42331;53.578;9.760;2024-02-14T10:07:56;7.50;;;4.47;;
56427;SDS011;42331;53.578;9.760;2024-02-14T10:10:32;6.00;;;3.95;;
56427;SDS011;42331;53.578;9.760;2024-02-14T10:13:08;7.70;;;4.35;;
56427;SDS011;42331;53.578;9.760;2024-02-14T10:15:46;6.03;;;4.00;;
56427;SDS011;42331;53.578;9.760;2024-02-14T10:18:17;6.70;;;3.75;;
56427;SDS011;42331;53.578;9.760;2024-02-14T10:20:52;6.30;;;3.73;;
56427;SDS011;42331;53.578;9.760;2024-02-14T10:23:23;5.40;;;3.45;;
56427;SDS011;42331;53.578;9.760;2024-02-14T10:25:54;5.33;;;3.60;;
56427;SDS011;42331;53.578;9.760;2024-02-14T10:31:35;6.22;;;3.72;;
56427;SDS011;42331;53.578;9.760;2024-02-14T10:34:15;5.72;;;3.63;;
56427;SDS011;42331;53.578;9.760;2024-02-14T10:36:47;5.55;;;3.67;;
56427;SDS011;42331;53.578;9.760;2024-02-14T10:39:18;5.63;;;3.70;;
56427;SDS011;42331;53.578;9.760;2024-02-14T10:41:49;4.45;;;2.72;;
56427;SDS011;42331;53.578;9.760;2024-02-14T10:44:20;6.23;;;4.13;;
56427;SDS011;42331;53.578;9.760;2024-02-14T10:46:52;4.50;;;3.17;;
56427;SDS011;42331;53.578;9.760;2024-02-14T10:49:23;4.90;;;3.42;;
56427;SDS011;42331;53.578;9.760;2024-02-14T10:51:56;5.47;;;3.75;;
56427;SDS011;42331;53.578;9.760;2024-02-14T10:54:33;6.68;;;4.07;;
56427;SDS011;42331;53.578;9.760;2024-02-14T10:57:06;5.20;;;3.60;;
56427;SDS011;42331;53.578;9.760;2024-02-14T10:59:43;5.78;;;3.95;;
56427;SDS011;42331;53.578;9.760;2024-02-14T11:02:15;5.95;;;4.13;;
56427;SDS011;42331;53.578;9.760;2024-02-14T11:04:47;7.05;;;4.15;;
56427;SDS011;42331;53.578;9.760;2024-02-14T11:07:23;5.63;;;3.85;;
56427;SDS011;42331;53.578;9.760;2024-02-14T11:10:01;6.90;;;4.18;;
56427;SDS011;42331;53.578;9.760;2024-02-14T11:12:35;8.27;;;4.40;;
56427;SDS011;42331;53.578;9.760;2024-02-14T11:15:10;6.30;;;4.60;;
56427;SDS011;42331;53.578;9.760;2024-02-14T11:17:41;6.10;;;4.25;;
56427;SDS011;42331;53.578;9.760;2024-02-14T11:20:16;6.38;;;4.20;;
56427;SDS011;42331;53.578;9.760;2024-02-14T11:22:55;5.50;;;4.30;;
56427;SDS011;42331;53.578;9.760;2024-02-14T11:25:36;7.78;;;4.47;;
56427;SDS011;42331;53.578;9.760;2024-02-14T11:31:31;5.70;;;4.00;;
56427;SDS011;42331;53.578;9.760;2024-02-14T11:37:26;6.15;;;4.20;;
56427;SDS011;42331;53.578;9.760;2024-02-14T11:42:52;8.73;;;3.97;;
56427;SDS011;42331;53.578;9.760;2024-02-14T11:45:26;4.95;;;3.67;;
56427;SDS011;42331;53.578;9.760;2024-02-14T11:51:08;5.03;;;3.40;;
56427;SDS011;42331;53.578;9.760;2024-02-14T11:53:40;4.90;;;3.42;;
56427;SDS011;42331;53.578;9.760;2024-02-14T11:56:16;4.32;;;3.05;;
56427;SDS011;42331;53.578;9.760;2024-02-14T12:02:06;6.70;;;3.20;;
56427;SDS011;42331;53.578;9.760;2024-02-14T12:04:46;4.28;;;2.92;;
56427;SDS011;42331;53.578;9.760;2024-02-14T12:07:39;5.55;;;2.90;;
56427;SDS011;42331;53.578;9.760;2024-02-14T12:10:15;4.47;;;2.72;;
56427;SDS011;42331;53.578;9.760;2024-02-14T12:12:47;5.18;;;2.60;;
56427;SDS011;42331;53.578;9.760;2024-02-14T12:15:21;8.00;;;3.25;;
56427;SDS011;42331;53.578;9.760;2024-02-14T12:17:54;4.30;;;2.90;;
56427;SDS011;42331;53.578;9.760;2024-02-14T12:20:26;6.05;;;2.90;;
56427;SDS011;42331;53.578;9.760;2024-02-14T12:22:57;4.22;;;2.70;;
56427;SDS011;42331;53.578;9.760;2024-02-14T12:25:29;5.63;;;3.28;;
56427;SDS011;42331;53.578;9.760;2024-02-14T12:30:42;6.13;;;3.25;;
56427;SDS011;42331;53.578;9.760;2024-02-14T12:33:17;5.80;;;3.90;;
56427;SDS011;42331;53.578;9.760;2024-02-14T12:35:48;6.70;;;3.87;;
56427;SDS011;42331;53.578;9.760;2024-02-14T12:38:19;6.45;;;3.65;;
56427;SDS011;42331;53.578;9.760;2024-02-14T12:40:51;5.60;;;3.58;;
56427;SDS011;42331;53.578;9.760;2024-02-14T12:43:26;7.15;;;4.22;;
56427;SDS011;42331;53.578;9.760;2024-02-14T12:45:57;7.57;;;4.32;;
56427;SDS011;42331;53.578;9.760;2024-02-14T12:48:28;9.65;;;4.70;;
56427;SDS011;42331;53.578;9.760;2024-02-14T12:50:59;8.15;;;5.03;;
56427;SDS011;42331;53.578;9.760;2024-02-14T12:53:31;5.97;;;3.33;;
56427;SDS011;42331;53.578;9.760;2024-02-14T12:56:02;8.03;;;4.03;;
56427;SDS011;42331;53.578;9.760;2024-02-14T12:58:34;8.93;;;4.60;;
56427;SDS011;42331;53.578;9.760;2024-02-14T13:01:06;8.07;;;4.57;;
56427;SDS011;42331;53.578;9.760;2024-02-14T13:03:41;8.10;;;4.82;;
56427;SDS011;42331;53.578;9.760;2024-02-14T13:06:12;8.13;;;5.72;;
56427;SDS011;42331;53.578;9.760;2024-02-14T13:08:44;9.88;;;6.05;;
56427;SDS011;42331;53.578;9.760;2024-02-14T13:11:15;8.52;;;5.78;;
56427;SDS011;42331;53.578;9.760;2024-02-14T13:13:48;10.30;;;6.03;;
56427;SDS011;42331;53.578;9.760;2024-02-14T13:16:20;10.77;;;6.78;;
56427;SDS011;42331;53.578;9.760;2024-02-14T13:18:51;12.10;;;6.60;;
56427;SDS011;42331;53.578;9.760;2024-02-14T13:21:23;11.68;;;6.88;;
56427;SDS011;42331;53.578;9.760;2024-02-14T13:23:54;12.10;;;6.78;;
56427;SDS011;42331;53.578;9.760;2024-02-14T13:26:27;11.32;;;6.15;;
56427;SDS011;42331;53.578;9.760;2024-02-14T13:28:58;10.75;;;6.75;;
56427;SDS011;42331;53.578;9.760;2024-02-14T13:31:30;10.80;;;5.80;;
56427;SDS011;42331;53.578;9.760;2024-02-14T13:34:01;12.33;;;6.83;;
56427;SDS011;42331;53.578;9.760;2024-02-14T13:36:33;11.05;;;6.72;;
56427;SDS011;42331;53.578;9.760;2024-02-14T13:39:04;12.43;;;6.97;;
56427;SDS011;42331;53.578;9.760;2024-02-14T13:41:35;11.00;;;7.00;;
56427;SDS011;42331;53.578;9.760;2024-02-14T13:44:08;10.98;;;6.35;;
56427;SDS011;42331;53.578;9.760;2024-02-14T13:46:43;13.25;;;6.80;;
56427;SDS011;42331;53.578;9.760;2024-02-14T13:49:14;14.70;;;6.93;;
56427;SDS011;42331;53.578;9.760;2024-02-14T13:51:51;12.35;;;6.88;;
56427;SDS011;42331;53.578;9.760;2024-02-14T13:54:24;14.15;;;6.85;;
56427;SDS011;42331;53.578;9.760;2024-02-14T13:56:56;12.60;;;6.53;;
56427;SDS011;42331;53.578;9.760;2024-02-14T13:59:27;17.73;;;6.83;;
56427;SDS011;42331;53.578;9.760;2024-02-14T14:02:07;10.73;;;6.78;;
56427;SDS011;42331;53.578;9.760;2024-02-14T14:04:39;12.80;;;7.18;;
56427;SDS011;42331;53.578;9.760;2024-02-14T14:07:10;11.27;;;6.93;;
56427;SDS011;42331;53.578;9.760;2024-02-14T14:09:42;12.43;;;7.47;;
56427;SDS011;42331;53.578;9.760;2024-02-14T14:12:19;15.07;;;7.10;;
56427;SDS011;42331;53.578;9.760;2024-02-14T14:14:51;12.07;;;6.47;;
56427;SDS011;42331;53.578;9.760;2024-02-14T14:17:22;13.73;;;6.80;;
56427;SDS011;42331;53.578;9.760;2024-02-14T14:19:53;10.03;;;6.33;;
56427;SDS011;42331;53.578;9.760;2024-02-14T14:22:25;14.15;;;6.82;;
56427;SDS011;42331;53.578;9.760;2024-02-14T14:24:56;11.10;;;6.60;;
56427;SDS011;42331;53.578;9.760;2024-02-14T14:27:27;17.43;;;7.73;;
56427;SDS011;42331;53.578;9.760;2024-02-14T14:30:00;12.90;;;7.40;;
56427;SDS011;42331;53.578;9.760;2024-02-14T14:32:34;11.57;;;6.63;;
56427;SDS011;42331;53.578;9.760;2024-02-14T14:35:05;17.40;;;7.70;;
56427;SDS011;42331;53.578;9.760;2024-02-14T14:37:36;13.98;;;7.85;;
56427;SDS011;42331;53.578;9.760;2024-02-14T14:40:08;12.45;;;6.70;;
56427;SDS011;42331;53.578;9.760;2024-02-14T14:42:58;12.75;;;8.07;;
56427;SDS011;42331;53.578;9.760;2024-02-14T14:45:29;14.82;;;8.32;;
56427;SDS011;42331;53.578;9.760;2024-02-14T14:48:01;14.43;;;7.75;;
56427;SDS011;42331;53.578;9.760;2024-02-14T14:50:32;12.73;;;7.80;;
56427;SDS011;42331;53.578;9.760;2024-02-14T14:53:03;11.75;;;7.00;;
56427;SDS011;42331;53.578;9.760;2024-02-14T14:56:09;13.30;;;7.93;;
56427;SDS011;42331;53.578;9.760;2024-02-14T14:58:35;15.13;;;7.53;;
56427;SDS011;42331;53.578;9.760;2024-02-14T15:01:06;13.07;;;7.30;;
56427;SDS011;42331;53.578;9.760;2024-02-14T15:03:39;12.88;;;7.18;;
56427;SDS011;42331;53.578;9.760;2024-02-14T15:06:10;13.40;;;7.40;;
56427;SDS011;42331;53.578;9.760;2024-02-14T15:08:41;13.87;;;7.37;;
56427;SDS011;42331;53.578;9.760;2024-02-14T15:11:13;16.05;;;7.57;;
56427;SDS011;42331;53.578;9.760;2024-02-14T15:13:47;12.63;;;7.07;;
56427;SDS011;42331;53.578;9.760;2024-02-14T15:16:18;14.25;;;7.68;;
56427;SDS011;42331;53.578;9.760;2024-02-14T15:18:51;12.70;;;8.07;;
56427;SDS011;42331;53.578;9.760;2024-02-14T15:21:30;12.82;;;6.85;;
56427;SDS011;42331;53.578;9.760;2024-02-14T15:24:01;13.98;;;7.40;;
56427;SDS011;42331;53.578;9.760;2024-02-14T15:26:34;11.63;;;6.55;;
56427;SDS011;42331;53.578;9.760;2024-02-14T15:29:28;11.18;;;6.95;;
56427;SDS011;42331;53.578;9.760;2024-02-14T15:32:18;10.38;;;5.90;;
56427;SDS011;42331;53.578;9.760;2024-02-14T15:35:07;12.35;;;6.55;;
56427;SDS011;42331;53.578;9.760;2024-02-14T15:37:39;11.00;;;6.00;;
56427;SDS011;42331;53.578;9.760;2024-02-14T15:40:12;12.20;;;6.80;;
56427;SDS011;42331;53.578;9.760;2024-02-14T15:45:50;14.18;;;6.70;;
56427;SDS011;42331;53.578;9.760;2024-02-14T15:48:21;15.55;;;7.78;;
56427;SDS011;42331;53.578;9.760;2024-02-14T15:50:57;11.57;;;6.68;;
56427;SDS011;42331;53.578;9.760;2024-02-14T15:53:36;13.70;;;7.13;;
56427;SDS011;42331;53.578;9.760;2024-02-14T15:56:08;12.73;;;6.68;;
56427;SDS011;42331;53.578;9.760;2024-02-14T15:58:42;14.13;;;7.05;;